Time;durP1;ratioP1;P1;durP2;ratioP2;P2;SDS_P1;SDS_P2;PMS_P1;PMS_P2;Temp;Humidity;BMP_temperature;BMP_pressure;BME280_temperature;BME280_humidity;BME280_pressure;Samples;Min_cycle;Max_cycle;Signal;HPM_P1;HPM_P2
2022/12/02 00:02:05;;;;;;;32.07;18.80;;;0.80;99.90;;;;;;5042445;28;20591;-74
2022/12/02 00:04:57;;;;;;;32.53;18.90;;;0.80;99.90;;;;;;5050301;28;20236;-74
2022/12/02 00:07:47;;;;;;;33.30;18.73;;;0.60;99.90;;;;;;5052509;28;20232;-74
2022/12/02 00:10:44;;;;;;;30.17;18.77;;;0.80;99.90;;;;;;5060596;28;20816;-75
2022/12/02 00:13:42;;;;;;;29.70;18.53;;;0.80;99.90;;;;;;5056295;28;20312;-75
2022/12/02 00:16:30;;;;;;;31.00;18.30;;;0.70;99.90;;;;;;5057415;28;20264;-73
2022/12/02 00:19:19;;;;;;;33.03;18.93;;;0.80;99.90;;;;;;5059143;28;20246;-73
2022/12/02 00:22:08;;;;;;;30.70;19.43;;;0.70;99.90;;;;;;5058952;28;20687;-73
2022/12/02 00:24:58;;;;;;;28.23;17.27;;;0.80;99.90;;;;;;5042330;28;21002;-73
2022/12/02 00:27:47;;;;;;;31.00;18.23;;;1.00;99.90;;;;;;5037969;28;20272;-75
2022/12/02 00:30:35;;;;;;;30.53;18.93;;;0.70;99.90;;;;;;5057713;28;20232;-73
2022/12/02 00:33:24;;;;;;;30.13;18.00;;;0.40;99.90;;;;;;5064286;28;20232;-73
2022/12/02 00:36:12;;;;;;;32.93;17.90;;;0.50;99.90;;;;;;5060836;28;20269;-72
2022/12/02 00:39:01;;;;;;;29.80;18.40;;;0.60;99.90;;;;;;5054285;28;20244;-74
2022/12/02 00:41:51;;;;;;;32.07;18.97;;;0.40;99.90;;;;;;5057568;28;20212;-72
2022/12/02 00:47:57;;;;;;;31.63;18.40;;;0.80;99.90;;;;;;5003560;28;20832;-73
2022/12/02 00:50:45;;;;;;;28.67;18.00;;;0.60;99.90;;;;;;5049594;28;20303;-74
2022/12/02 00:53:34;;;;;;;31.83;17.83;;;0.50;99.90;;;;;;5049653;28;20227;-75
2022/12/02 00:56:23;;;;;;;29.20;16.83;;;0.70;99.90;;;;;;5060129;28;20766;-73
2022/12/02 00:59:13;;;;;;;31.43;16.63;;;0.50;99.90;;;;;;5045393;28;20356;-73
2022/12/02 01:02:01;;;;;;;29.13;18.07;;;0.40;99.90;;;;;;5054705;28;20227;-73
2022/12/02 01:04:52;;;;;;;30.40;17.40;;;0.50;99.90;;;;;;5040584;28;20224;-73
2022/12/02 01:07:40;;;;;;;28.37;16.13;;;0.40;99.90;;;;;;5053424;28;20229;-73
2022/12/02 01:10:29;;;;;;;29.07;16.70;;;0.60;99.90;;;;;;5061166;28;20228;-73
2022/12/02 01:13:17;;;;;;;28.30;15.97;;;0.60;99.90;;;;;;5052693;28;20239;-73
2022/12/02 01:16:09;;;;;;;25.83;15.30;;;0.30;99.90;;;;;;5055252;28;20224;-73
2022/12/02 01:18:57;;;;;;;24.87;15.80;;;0.30;99.90;;;;;;5049588;28;20249;-73
2022/12/02 01:21:46;;;;;;;25.07;15.57;;;0.20;99.90;;;;;;5045237;28;20737;-74
2022/12/02 01:24:35;;;;;;;24.20;15.10;;;0.40;99.90;;;;;;5059180;28;20220;-74
2022/12/02 01:27:23;;;;;;;26.67;15.43;;;0.40;99.90;;;;;;5056830;28;20231;-73
2022/12/02 01:30:14;;;;;;;27.50;15.47;;;0.70;99.90;;;;;;5058157;28;20232;-73
2022/12/02 01:33:04;;;;;;;26.93;14.93;;;0.70;99.90;;;;;;5051527;28;20315;-73
2022/12/02 01:35:52;;;;;;;27.10;14.97;;;0.50;99.90;;;;;;5033544;28;20224;-73
2022/12/02 01:38:41;;;;;;;25.77;15.37;;;0.60;99.90;;;;;;5049136;28;20758;-73
2022/12/02 01:41:30;;;;;;;26.83;15.60;;;0.60;99.90;;;;;;5048661;28;20229;-75
2022/12/02 01:44:18;;;;;;;27.80;16.03;;;0.50;99.90;;;;;;5047811;28;21304;-73
2022/12/02 01:47:07;;;;;;;26.23;16.23;;;0.60;99.90;;;;;;5039068;28;20291;-74
2022/12/02 01:49:57;;;;;;;27.13;16.13;;;0.60;99.90;;;;;;5053072;28;20596;-73
2022/12/02 01:52:46;;;;;;;29.70;15.43;;;0.30;99.90;;;;;;5040178;28;20262;-74
2022/12/02 01:55:35;;;;;;;28.90;16.40;;;0.40;99.90;;;;;;5051324;28;20217;-73
2022/12/02 01:58:26;;;;;;;31.77;16.17;;;0.30;99.90;;;;;;5046063;28;20225;-73
2022/12/02 02:01:28;;;;;;;23.13;14.80;;;0.30;99.90;;;;;;5068202;28;20232;-73
2022/12/02 02:04:18;;;;;;;25.50;15.10;;;0.60;99.90;;;;;;5057194;28;20691;-74
2022/12/02 02:07:08;;;;;;;31.50;15.77;;;0.60;99.90;;;;;;5055804;28;20413;-74
2022/12/02 02:09:56;;;;;;;29.03;15.43;;;0.80;99.90;;;;;;5057337;28;21589;-73
2022/12/02 02:12:50;;;;;;;28.27;15.70;;;0.40;99.90;;;;;;5059350;28;20217;-74
2022/12/02 02:15:40;;;;;;;25.43;15.53;;;0.70;99.90;;;;;;5062620;28;20220;-74
2022/12/02 02:18:29;;;;;;;27.73;15.73;;;0.50;99.90;;;;;;5051566;28;20248;-74
2022/12/02 02:21:23;;;;;;;26.13;16.03;;;0.60;99.90;;;;;;5044691;28;20216;-74
2022/12/02 02:24:14;;;;;;;27.53;15.80;;;0.30;99.90;;;;;;5050952;28;20227;-74
2022/12/02 02:27:02;;;;;;;26.47;15.20;;;0.20;99.90;;;;;;5063506;28;20217;-75
2022/12/02 02:29:51;;;;;;;27.40;16.17;;;0.60;99.90;;;;;;5061432;28;21084;-74
2022/12/02 02:32:40;;;;;;;29.67;17.23;;;0.50;99.90;;;;;;5066619;28;20235;-72
2022/12/02 02:35:28;;;;;;;24.10;15.60;;;0.70;99.90;;;;;;5059112;28;20300;-74
2022/12/02 02:38:20;;;;;;;28.27;15.37;;;0.30;99.90;;;;;;5063991;28;20231;-73
2022/12/02 02:41:11;;;;;;;27.80;16.10;;;0.10;99.90;;;;;;5051960;28;20252;-74
2022/12/02 02:44:00;;;;;;;24.57;15.20;;;0.40;99.90;;;;;;5062984;28;22620;-73
2022/12/02 02:46:48;;;;;;;26.90;16.60;;;0.20;99.90;;;;;;5057646;28;20220;-73
2022/12/02 02:49:37;;;;;;;26.67;15.47;;;0.10;99.90;;;;;;5053035;28;20219;-74
2022/12/02 02:52:26;;;;;;;25.50;15.97;;;0.10;99.90;;;;;;5054529;28;20221;-73
2022/12/02 02:55:19;;;;;;;30.60;16.37;;;0.30;99.90;;;;;;5049283;28;20338;-73
2022/12/02 02:58:10;;;;;;;29.10;16.80;;;0.50;99.90;;;;;;5059995;28;20212;-74
2022/12/02 03:01:02;;;;;;;26.87;17.07;;;0.70;99.90;;;;;;5043837;28;20219;-75
2022/12/02 03:03:57;;;;;;;29.40;17.67;;;0.60;99.90;;;;;;5055746;28;20236;-74
2022/12/02 03:06:47;;;;;;;27.23;17.27;;;0.30;99.90;;;;;;5060996;28;20230;-74
2022/12/02 03:09:36;;;;;;;29.30;17.73;;;0.20;99.90;;;;;;5052647;28;20730;-75
2022/12/02 03:12:25;;;;;;;30.23;16.97;;;0.00;99.90;;;;;;5053825;28;20283;-75
2022/12/02 03:15:16;;;;;;;30.77;17.90;;;-0.10;99.90;;;;;;5055988;28;20766;-75
2022/12/02 03:18:05;;;;;;;30.50;17.93;;;0.00;99.90;;;;;;5058519;28;20227;-74
2022/12/02 03:20:53;;;;;;;31.73;17.90;;;0.50;99.90;;;;;;5057897;28;20231;-75
2022/12/02 03:23:42;;;;;;;34.40;18.47;;;0.70;99.90;;;;;;5062532;28;20283;-75
2022/12/02 03:26:32;;;;;;;33.50;19.10;;;0.40;99.90;;;;;;5065999;28;20878;-75
2022/12/02 03:29:20;;;;;;;29.27;18.73;;;0.40;99.90;;;;;;5051946;28;20220;-75
2022/12/02 03:32:10;;;;;;;32.40;17.80;;;0.50;99.90;;;;;;5037616;28;20237;-76
2022/12/02 03:35:00;;;;;;;32.20;18.67;;;0.40;99.90;;;;;;5055842;28;20722;-76
2022/12/02 03:37:48;;;;;;;30.00;17.97;;;0.40;99.90;;;;;;5038045;28;20286;-75
2022/12/02 03:40:37;;;;;;;30.63;18.33;;;0.40;99.90;;;;;;5048518;28;20220;-75
2022/12/02 03:43:26;;;;;;;30.53;19.00;;;0.10;99.90;;;;;;5061904;28;20229;-75
2022/12/02 03:46:15;;;;;;;30.63;18.40;;;0.20;99.90;;;;;;5047907;28;20240;-75
2022/12/02 03:49:05;;;;;;;31.10;18.27;;;0.30;99.90;;;;;;5056896;28;20595;-75
2022/12/02 03:51:53;;;;;;;31.30;17.10;;;0.30;99.90;;;;;;5045714;28;20308;-74
2022/12/02 03:54:42;;;;;;;32.37;19.43;;;0.40;99.90;;;;;;5063311;28;20362;-74
2022/12/02 03:57:33;;;;;;;29.97;19.17;;;0.40;99.90;;;;;;5045855;28;20741;-75
2022/12/02 04:00:22;;;;;;;33.43;19.67;;;0.40;99.90;;;;;;5051844;28;20221;-75
2022/12/02 04:03:10;;;;;;;31.73;19.67;;;0.40;99.90;;;;;;5057883;28;20216;-75
2022/12/02 04:06:00;;;;;;;29.13;18.97;;;0.30;99.90;;;;;;5054754;28;20224;-75
2022/12/02 04:08:49;;;;;;;31.30;19.93;;;0.10;99.90;;;;;;5051146;28;20228;-75
2022/12/02 04:11:37;;;;;;;32.87;19.47;;;0.20;99.90;;;;;;5057271;28;20758;-75
2022/12/02 04:14:26;;;;;;;35.67;20.17;;;0.20;99.90;;;;;;5054406;28;20232;-77
2022/12/02 04:17:14;;;;;;;33.63;20.10;;;0.30;99.90;;;;;;5046766;28;20232;-76
2022/12/02 04:20:05;;;;;;;33.83;19.93;;;0.30;99.90;;;;;;5061210;28;20347;-76
2022/12/02 04:22:54;;;;;;;37.90;19.97;;;0.40;99.90;;;;;;5053720;28;20701;-76
2022/12/02 04:25:43;;;;;;;33.83;20.30;;;0.60;99.90;;;;;;5051461;28;20228;-76
2022/12/02 04:28:31;;;;;;;34.23;18.73;;;0.40;99.90;;;;;;5059464;28;20259;-75
2022/12/02 04:31:20;;;;;;;32.93;18.87;;;0.40;99.90;;;;;;5054301;28;20243;-74
2022/12/02 04:34:09;;;;;;;37.97;18.57;;;0.30;99.90;;;;;;5057580;28;20224;-75
2022/12/02 04:36:57;;;;;;;36.83;19.07;;;0.20;99.90;;;;;;5048644;28;20352;-73
2022/12/02 04:39:47;;;;;;;33.40;18.97;;;0.30;99.90;;;;;;5043417;28;20227;-74
2022/12/02 04:42:36;;;;;;;37.97;20.57;;;0.20;99.90;;;;;;5056285;28;20233;-75
2022/12/02 04:45:24;;;;;;;35.00;19.23;;;0.30;99.90;;;;;;5058316;28;20262;-75
2022/12/02 04:48:13;;;;;;;37.27;20.73;;;0.20;99.90;;;;;;5058594;28;20355;-75
2022/12/02 04:51:01;;;;;;;35.17;19.70;;;0.20;99.90;;;;;;5058801;28;20224;-75
2022/12/02 04:53:50;;;;;;;35.00;19.90;;;0.30;99.90;;;;;;5062279;28;20231;-75
2022/12/02 04:56:40;;;;;;;37.27;19.93;;;0.50;99.90;;;;;;5057657;28;21128;-75
2022/12/02 04:59:28;;;;;;;38.03;19.73;;;0.60;99.90;;;;;;5057641;28;20259;-74
2022/12/02 05:02:17;;;;;;;38.50;19.77;;;0.50;99.90;;;;;;5059232;28;20229;-75
2022/12/02 05:05:06;;;;;;;33.13;17.70;;;0.60;99.90;;;;;;5036165;28;20327;-75
2022/12/02 05:07:55;;;;;;;33.27;18.53;;;0.40;99.90;;;;;;5059571;28;20700;-75
2022/12/02 05:10:44;;;;;;;31.50;18.07;;;0.30;99.90;;;;;;5050138;28;20316;-75
2022/12/02 05:13:34;;;;;;;30.27;17.97;;;0.50;99.90;;;;;;5059812;28;20216;-76
2022/12/02 05:16:22;;;;;;;29.93;17.87;;;0.40;99.90;;;;;;5050962;28;21411;-76
2022/12/02 05:19:11;;;;;;;34.80;18.03;;;0.40;99.90;;;;;;5065674;28;20310;-74
2022/12/02 05:22:00;;;;;;;31.13;18.23;;;0.20;99.90;;;;;;5043753;28;20212;-73
2022/12/02 05:24:49;;;;;;;29.33;17.70;;;0.20;99.90;;;;;;5039802;28;20251;-75
2022/12/02 05:27:37;;;;;;;37.10;18.27;;;0.20;99.90;;;;;;5049974;28;20243;-76
2022/12/02 05:30:27;;;;;;;27.20;17.27;;;0.20;99.90;;;;;;5054879;28;20234;-74
2022/12/02 05:33:16;;;;;;;33.63;17.53;;;0.30;99.90;;;;;;5060639;28;20223;-73
2022/12/02 05:36:05;;;;;;;29.83;17.03;;;0.10;99.90;;;;;;5049252;28;20881;-75
2022/12/02 05:38:54;;;;;;;27.47;16.60;;;0.10;99.90;;;;;;5056269;28;20298;-73
2022/12/02 05:41:43;;;;;;;30.10;17.20;;;0.00;99.90;;;;;;5051761;28;20238;-72
2022/12/02 05:44:34;;;;;;;32.23;17.67;;;0.00;99.90;;;;;;5054619;28;20221;-73
2022/12/02 05:47:30;;;;;;;29.80;16.63;;;0.00;99.90;;;;;;5054360;28;20224;-73
2022/12/02 05:50:19;;;;;;;31.43;16.87;;;-0.30;99.90;;;;;;5063382;28;20239;-73
2022/12/02 05:53:22;;;;;;;29.77;16.87;;;0.00;99.90;;;;;;5054817;28;20933;-73
2022/12/02 05:56:13;;;;;;;28.47;16.07;;;-0.10;99.90;;;;;;5059389;28;20255;-72
2022/12/02 05:59:07;;;;;;;27.37;15.93;;;-0.10;99.90;;;;;;5059976;28;20224;-74
2022/12/02 06:01:59;;;;;;;29.00;16.67;;;0.10;99.90;;;;;;5050913;28;20231;-74
2022/12/02 06:04:49;;;;;;;28.93;16.47;;;-0.20;99.90;;;;;;5058059;28;20205;-73
2022/12/02 06:07:38;;;;;;;26.73;16.80;;;-0.20;99.90;;;;;;5059955;28;20216;-74
2022/12/02 06:10:29;;;;;;;29.30;16.27;;;0.00;99.90;;;;;;5061257;28;20311;-75
2022/12/02 06:13:20;;;;;;;30.87;15.93;;;0.10;99.90;;;;;;5065329;28;20649;-73
2022/12/02 06:16:15;;;;;;;28.90;15.83;;;0.30;99.90;;;;;;5063523;28;20231;-75
2022/12/02 06:19:15;;;;;;;27.47;15.70;;;0.10;99.90;;;;;;5063550;28;20419;-74
2022/12/02 06:22:13;;;;;;;26.53;16.10;;;0.00;99.90;;;;;;5061106;28;20220;-76
2022/12/02 06:25:03;;;;;;;26.97;15.73;;;0.10;99.90;;;;;;5055479;28;20227;-74
2022/12/02 06:27:55;;;;;;;30.07;15.47;;;0.20;99.90;;;;;;5060247;28;21333;-75
2022/12/02 06:30:47;;;;;;;31.50;16.37;;;0.20;99.90;;;;;;5060681;28;20706;-76
2022/12/02 06:33:38;;;;;;;26.97;14.80;;;0.00;99.90;;;;;;5052910;28;20239;-75
2022/12/02 06:36:30;;;;;;;32.60;15.93;;;-0.10;99.90;;;;;;5053904;28;20272;-74
2022/12/02 06:39:22;;;;;;;30.97;15.93;;;-0.30;99.90;;;;;;5059342;28;21132;-75
2022/12/02 06:42:20;;;;;;;32.67;16.90;;;-0.10;99.90;;;;;;5037550;28;20316;-74
2022/12/02 06:45:24;;;;;;;29.07;16.43;;;-0.10;99.90;;;;;;5060233;28;20684;-75
2022/12/02 06:48:26;;;;;;;30.37;16.53;;;-0.20;99.90;;;;;;5051873;28;20224;-73
2022/12/02 06:51:19;;;;;;;32.00;16.07;;;0.10;99.90;;;;;;5054335;28;20321;-75
2022/12/02 06:54:15;;;;;;;32.17;16.50;;;0.20;99.90;;;;;;5058568;28;20227;-75
2022/12/02 06:57:10;;;;;;;30.40;16.63;;;-0.10;99.90;;;;;;5047867;28;20730;-75
2022/12/02 06:59:58;;;;;;;30.00;17.00;;;0.00;99.90;;;;;;5053633;28;20718;-74
2022/12/02 07:02:47;;;;;;;25.87;15.57;;;0.10;99.90;;;;;;5060974;28;20212;-75
2022/12/02 07:05:36;;;;;;;31.50;16.43;;;0.20;99.90;;;;;;5050508;28;20217;-74
2022/12/02 07:08:26;;;;;;;27.73;16.57;;;0.20;99.90;;;;;;5063095;28;20714;-74
2022/12/02 07:14:40;;;;;;;33.87;18.30;;;0.10;99.90;;;;;;5059014;28;21021;-75
2022/12/02 07:17:32;;;;;;;35.87;18.97;;;0.10;99.90;;;;;;5054360;28;20224;-77
2022/12/02 07:20:31;;;;;;;30.70;18.17;;;0.20;99.90;;;;;;5051185;28;20588;-77
2022/12/02 07:23:21;;;;;;;37.07;19.20;;;0.30;99.90;;;;;;5061390;28;20484;-75
2022/12/02 07:26:11;;;;;;;30.00;18.07;;;0.20;99.90;;;;;;5041158;28;20232;-75
2022/12/02 07:29:01;;;;;;;38.07;18.03;;;0.20;99.90;;;;;;5058884;28;20231;-74
2022/12/02 07:32:04;;;;;;;29.20;17.57;;;0.30;99.90;;;;;;5055680;28;20627;-78
2022/12/02 07:34:53;;;;;;;40.87;19.17;;;0.50;99.90;;;;;;5046783;28;20224;-76
2022/12/02 07:37:42;;;;;;;36.97;20.00;;;0.50;99.90;;;;;;5061409;28;20220;-76
2022/12/02 07:40:30;;;;;;;33.73;20.53;;;0.10;99.90;;;;;;5065423;28;20274;-75
2022/12/02 07:43:19;;;;;;;33.30;18.73;;;0.00;99.90;;;;;;5058456;28;20221;-74
2022/12/02 07:46:08;;;;;;;36.20;20.60;;;-0.10;99.90;;;;;;5048661;28;20308;-74
2022/12/02 07:48:58;;;;;;;37.40;20.53;;;0.10;99.90;;;;;;5055680;28;20231;-73
2022/12/02 07:51:46;;;;;;;36.37;19.57;;;0.10;99.90;;;;;;5066266;28;20219;-74
2022/12/02 07:54:35;;;;;;;40.67;20.57;;;-0.10;99.90;;;;;;5061800;28;20226;-72
2022/12/02 07:57:23;;;;;;;37.53;19.70;;;0.00;99.90;;;;;;5053370;28;20227;-74
2022/12/02 08:00:13;;;;;;;33.70;19.43;;;0.10;99.90;;;;;;5055550;28;20232;-73
2022/12/02 08:03:02;;;;;;;38.20;20.23;;;0.30;99.90;;;;;;5061566;28;20694;-72
2022/12/02 08:05:52;;;;;;;32.17;17.23;;;-0.10;99.90;;;;;;5061609;28;20698;-72
2022/12/02 08:08:41;;;;;;;31.47;18.87;;;-0.30;99.90;;;;;;5061881;28;20643;-74
2022/12/02 08:11:30;;;;;;;32.00;19.20;;;-0.40;99.90;;;;;;5062545;28;20749;-74
2022/12/02 08:14:18;;;;;;;34.13;19.83;;;-0.40;99.90;;;;;;5050430;28;20233;-74
2022/12/02 08:17:07;;;;;;;35.17;19.50;;;0.00;99.90;;;;;;5063129;28;20219;-74
2022/12/02 08:19:55;;;;;;;37.00;19.27;;;0.00;99.90;;;;;;5058527;28;20224;-75
2022/12/02 08:22:45;;;;;;;36.40;20.43;;;0.00;99.90;;;;;;5057173;28;20311;-74
2022/12/02 08:25:34;;;;;;;43.50;21.80;;;-0.10;99.90;;;;;;5055816;28;20224;-74
2022/12/02 08:28:22;;;;;;;39.37;21.10;;;-0.20;99.90;;;;;;5056182;28;20252;-75
2022/12/02 08:31:11;;;;;;;38.20;21.20;;;-0.30;99.90;;;;;;5059897;28;20988;-76
2022/12/02 08:34:00;;;;;;;38.53;21.00;;;-0.30;99.90;;;;;;5059419;28;20297;-76
2022/12/02 08:36:54;;;;;;;37.40;20.30;;;-0.20;99.90;;;;;;5056120;28;20771;-76
2022/12/02 08:39:44;;;;;;;32.47;19.67;;;-0.20;99.90;;;;;;5057076;28;20238;-75
2022/12/02 08:42:33;;;;;;;38.07;21.03;;;-0.20;99.90;;;;;;5065989;28;20760;-75
2022/12/02 08:45:21;;;;;;;43.83;20.23;;;-0.60;99.90;;;;;;5061245;28;20236;-75
2022/12/02 08:48:10;;;;;;;40.73;21.50;;;-0.40;99.90;;;;;;5051702;28;20221;-75
2022/12/02 08:51:00;;;;;;;43.00;19.80;;;-0.30;99.90;;;;;;5042514;28;20762;-76
2022/12/02 08:53:52;;;;;;;41.63;21.70;;;-0.20;99.90;;;;;;5056777;28;20228;-76
2022/12/02 08:56:42;;;;;;;42.03;21.67;;;-0.30;99.90;;;;;;5049068;28;20945;-74
2022/12/02 08:59:31;;;;;;;41.87;20.37;;;-0.40;99.90;;;;;;5058803;28;20314;-76
2022/12/02 09:02:19;;;;;;;44.47;21.47;;;-0.30;99.90;;;;;;5056549;28;20224;-74
2022/12/02 09:05:08;;;;;;;41.20;22.00;;;-0.30;99.90;;;;;;5059904;28;20228;-76
2022/12/02 09:07:56;;;;;;;44.17;21.57;;;-0.40;99.90;;;;;;5056133;28;20297;-76
2022/12/02 09:10:45;;;;;;;38.73;21.63;;;-0.40;99.90;;;;;;5058301;28;20363;-75
2022/12/02 09:13:35;;;;;;;43.37;21.30;;;-0.40;99.90;;;;;;5046854;28;20235;-75
2022/12/02 09:16:25;;;;;;;39.57;21.63;;;-0.20;99.90;;;;;;5050116;28;20258;-75
2022/12/02 09:19:14;;;;;;;37.80;21.97;;;0.10;99.90;;;;;;5057162;28;20712;-75
2022/12/02 09:22:02;;;;;;;45.70;22.50;;;-0.10;99.90;;;;;;5032498;28;20224;-76
2022/12/02 09:24:51;;;;;;;41.33;22.73;;;0.10;99.90;;;;;;5054622;28;20227;-74
2022/12/02 09:27:41;;;;;;;41.13;22.63;;;-0.20;99.90;;;;;;5060013;28;20220;-75
2022/12/02 09:30:31;;;;;;;39.67;23.20;;;0.10;99.90;;;;;;5052845;28;20221;-75
2022/12/02 09:33:19;;;;;;;43.27;23.23;;;-0.20;99.90;;;;;;5052477;28;20227;-75
2022/12/02 09:36:08;;;;;;;48.43;22.73;;;-0.30;99.90;;;;;;5057081;28;20220;-76
2022/12/02 09:38:57;;;;;;;43.17;23.07;;;-0.10;99.90;;;;;;5051957;28;20220;-75
2022/12/02 09:41:46;;;;;;;46.00;24.23;;;-0.20;99.90;;;;;;5048491;28;20240;-75
2022/12/02 09:44:36;;;;;;;42.40;22.37;;;-0.10;99.90;;;;;;5053180;28;20308;-75
2022/12/02 09:47:28;;;;;;;40.77;23.23;;;-0.10;99.90;;;;;;5063415;28;20595;-76
2022/12/02 09:50:17;;;;;;;45.27;22.10;;;0.00;99.90;;;;;;5058032;28;20238;-76
2022/12/02 09:53:07;;;;;;;38.80;20.80;;;0.10;99.90;;;;;;5047082;28;20227;-73
2022/12/02 09:55:56;;;;;;;39.67;20.67;;;0.10;99.90;;;;;;5037838;28;20240;-74
2022/12/02 09:58:45;;;;;;;43.30;21.23;;;0.10;99.90;;;;;;5051729;28;20316;-73
2022/12/02 10:01:34;;;;;;;39.93;21.63;;;0.00;99.90;;;;;;5051366;28;20305;-73
2022/12/02 10:04:24;;;;;;;42.80;22.17;;;0.10;99.90;;;;;;5057591;28;20227;-72
2022/12/02 10:07:12;;;;;;;33.87;20.80;;;0.20;99.90;;;;;;5051337;28;20220;-73
2022/12/02 10:10:01;;;;;;;36.77;19.67;;;0.10;99.90;;;;;;5060216;28;20223;-73
2022/12/02 10:12:52;;;;;;;39.93;20.50;;;0.00;99.90;;;;;;5055492;28;20244;-73
2022/12/02 10:15:41;;;;;;;36.80;20.30;;;0.00;99.90;;;;;;5043558;28;20235;-72
2022/12/02 10:18:31;;;;;;;53.17;22.97;;;0.10;99.90;;;;;;5055093;28;20231;-74
2022/12/02 10:21:21;;;;;;;37.93;20.77;;;0.40;99.90;;;;;;5049938;28;20625;-73
2022/12/02 10:24:12;;;;;;;31.97;18.63;;;0.40;99.90;;;;;;5058145;28;20220;-73
2022/12/02 10:27:00;;;;;;;41.93;20.87;;;0.20;99.90;;;;;;5054686;28;20924;-74
2022/12/02 10:29:49;;;;;;;39.10;22.33;;;0.10;99.90;;;;;;5059204;28;20227;-73
2022/12/02 10:32:39;;;;;;;39.37;22.13;;;0.10;99.90;;;;;;5042421;28;20669;-75
2022/12/02 10:35:28;;;;;;;44.80;23.13;;;0.20;99.90;;;;;;5035364;28;20220;-75
2022/12/02 10:38:33;;;;;;;39.83;21.97;;;-0.20;99.90;;;;;;5057590;28;20232;-72
2022/12/02 10:41:24;;;;;;;44.50;21.60;;;-0.50;99.90;;;;;;5064233;28;20220;-74
2022/12/02 10:44:17;;;;;;;43.70;23.03;;;-0.50;99.90;;;;;;5055665;28;20417;-72
2022/12/02 10:47:16;;;;;;;39.97;21.93;;;-0.50;99.90;;;;;;5066112;28;20594;-74
2022/12/02 10:50:18;;;;;;;43.50;21.20;;;-0.50;99.90;;;;;;5064124;28;20234;-73
2022/12/02 10:53:14;;;;;;;42.67;22.27;;;-0.70;99.90;;;;;;5056879;28;20248;-75
2022/12/02 10:56:05;;;;;;;39.03;22.13;;;-0.50;99.90;;;;;;5049939;28;20224;-73
2022/12/02 10:58:55;;;;;;;38.37;21.70;;;-0.60;99.90;;;;;;5063866;28;20716;-73
2022/12/02 11:01:45;;;;;;;37.00;21.37;;;-0.60;99.90;;;;;;5045594;28;20219;-74
2022/12/02 11:04:34;;;;;;;40.47;21.70;;;-0.30;99.90;;;;;;5058454;28;20311;-75
2022/12/02 11:07:24;;;;;;;37.23;20.80;;;-0.30;99.90;;;;;;5060079;28;20224;-72
2022/12/02 11:10:20;;;;;;;40.87;21.53;;;-0.60;99.90;;;;;;5055667;28;20740;-75
2022/12/02 11:13:46;;;;;;;42.40;22.67;;;-0.70;99.90;;;;;;5059173;28;20225;-76
2022/12/02 11:16:46;;;;;;;42.57;22.03;;;-0.60;99.90;;;;;;5052533;28;20220;-74
2022/12/02 11:19:45;;;;;;;39.27;22.40;;;-0.60;99.90;;;;;;5052521;28;20868;-75
2022/12/02 11:22:48;;;;;;;43.77;23.17;;;-0.80;99.90;;;;;;5035998;28;20584;-74
2022/12/02 11:26:00;;;;;;;39.17;21.63;;;-0.80;99.90;;;;;;5046329;28;20216;-75
2022/12/02 11:29:16;;;;;;;44.00;24.20;;;-0.60;99.90;;;;;;5050401;28;20217;-74
2022/12/02 11:32:17;;;;;;;43.30;22.67;;;-0.70;99.90;;;;;;5045511;28;20696;-75
2022/12/02 11:35:13;;;;;;;47.57;24.37;;;-0.60;99.90;;;;;;5043077;28;20234;-74
2022/12/02 11:38:20;;;;;;;40.23;23.20;;;-0.50;99.90;;;;;;5039396;28;21080;-76
2022/12/02 11:41:08;;;;;;;41.90;22.70;;;-0.20;99.90;;;;;;5057678;28;20334;-73
2022/12/02 11:44:23;;;;;;;38.67;21.43;;;-0.30;99.90;;;;;;5046653;28;20225;-75
2022/12/02 11:47:26;;;;;;;41.50;21.27;;;-0.30;99.90;;;;;;5045422;28;20217;-74
2022/12/02 11:50:25;;;;;;;39.03;20.73;;;-0.70;99.90;;;;;;5056729;28;20265;-74
2022/12/02 11:53:16;;;;;;;43.50;23.17;;;-0.60;99.90;;;;;;5039116;28;20672;-73
2022/12/02 11:56:11;;;;;;;42.03;21.27;;;-0.60;99.90;;;;;;5056242;28;20223;-75
2022/12/02 11:59:00;;;;;;;41.97;23.00;;;-0.60;99.90;;;;;;5056860;28;20220;-75
2022/12/02 12:01:50;;;;;;;44.23;23.13;;;-0.60;99.90;;;;;;5058632;28;20208;-76
2022/12/02 12:04:39;;;;;;;42.47;24.00;;;-0.60;99.90;;;;;;5061116;28;20216;-74
2022/12/02 12:07:43;;;;;;;41.37;23.13;;;-0.50;99.90;;;;;;5064107;28;20377;-76
2022/12/02 12:10:34;;;;;;;44.43;23.00;;;-0.50;99.90;;;;;;5046293;28;20220;-75
2022/12/02 12:13:25;;;;;;;43.00;23.77;;;-0.40;99.90;;;;;;5049096;28;20702;-74
2022/12/02 12:16:22;;;;;;;42.53;23.93;;;-0.20;99.90;;;;;;5058559;28;20271;-75
2022/12/02 12:19:28;;;;;;;43.03;23.03;;;-0.20;99.90;;;;;;5058851;28;20232;-75
2022/12/02 12:22:27;;;;;;;49.20;25.73;;;-0.30;99.90;;;;;;5044516;28;20227;-75
2022/12/02 12:25:41;;;;;;;44.13;23.73;;;-0.30;99.90;;;;;;5061074;28;20224;-74
2022/12/02 12:28:32;;;;;;;46.47;24.20;;;-0.40;99.90;;;;;;5056456;28;20297;-74
2022/12/02 12:31:21;;;;;;;46.33;23.17;;;-0.60;99.90;;;;;;5049368;28;20220;-75
2022/12/02 12:34:10;;;;;;;51.23;23.97;;;-0.70;99.90;;;;;;5055261;28;20233;-74
2022/12/02 12:37:00;;;;;;;45.13;23.27;;;-0.60;99.90;;;;;;5060473;28;20711;-75
2022/12/02 12:39:49;;;;;;;46.37;24.17;;;-0.80;99.90;;;;;;5057356;28;20732;-75
2022/12/02 12:42:37;;;;;;;50.97;25.27;;;-0.60;99.90;;;;;;5055543;28;20769;-75
2022/12/02 12:45:26;;;;;;;44.50;24.07;;;-0.80;99.90;;;;;;5044630;28;20224;-76
2022/12/02 12:48:15;;;;;;;46.70;25.27;;;-0.70;99.90;;;;;;5058899;28;20220;-76
2022/12/02 12:51:05;;;;;;;44.07;24.33;;;-0.80;99.90;;;;;;5051979;28;20224;-76
2022/12/02 12:53:55;;;;;;;48.33;25.03;;;-0.90;99.90;;;;;;5053723;28;20565;-75
2022/12/02 12:56:43;;;;;;;48.70;24.10;;;-0.80;99.90;;;;;;5052053;28;20240;-74
2022/12/02 12:59:32;;;;;;;48.73;24.43;;;-0.70;99.90;;;;;;5055386;28;20307;-75
2022/12/02 13:02:20;;;;;;;43.23;23.20;;;-0.70;99.90;;;;;;5056035;28;20741;-74
2022/12/02 13:05:09;;;;;;;46.77;24.60;;;-0.90;99.90;;;;;;5060586;28;20616;-75
2022/12/02 13:07:58;;;;;;;46.90;23.90;;;-0.60;99.90;;;;;;5052785;28;20231;-75
2022/12/02 13:10:48;;;;;;;44.43;22.73;;;-0.40;99.90;;;;;;5047352;28;20240;-74
2022/12/02 13:13:37;;;;;;;37.70;20.60;;;-0.50;99.90;;;;;;5032434;28;20220;-75
2022/12/02 13:16:25;;;;;;;39.20;21.53;;;-0.60;99.90;;;;;;5050229;28;20225;-75
2022/12/02 13:19:14;;;;;;;37.97;20.83;;;-0.60;99.90;;;;;;5039151;28;20322;-75
2022/12/02 13:22:02;;;;;;;40.67;21.67;;;-0.50;99.90;;;;;;5043205;28;20585;-76
2022/12/02 13:24:51;;;;;;;41.07;20.80;;;-0.40;99.90;;;;;;5029321;28;20224;-75
2022/12/02 13:27:41;;;;;;;46.13;23.20;;;-0.20;99.90;;;;;;5034666;28;20248;-75
2022/12/02 13:30:30;;;;;;;45.73;24.13;;;-0.30;99.90;;;;;;5039330;28;20232;-74
2022/12/02 13:33:18;;;;;;;44.90;25.53;;;-0.60;99.90;;;;;;5048845;28;20221;-75
2022/12/02 13:36:08;;;;;;;49.83;25.83;;;-0.70;99.90;;;;;;5037503;28;20236;-74
2022/12/02 13:38:57;;;;;;;48.33;25.37;;;-0.50;99.90;;;;;;5038385;28;20896;-74
2022/12/02 13:41:53;;;;;;;51.53;25.50;;;-0.60;99.90;;;;;;5021136;28;20229;-74
2022/12/02 13:44:43;;;;;;;48.60;24.43;;;-0.40;99.90;;;;;;5043592;28;20224;-73
2022/12/02 13:47:32;;;;;;;49.73;25.17;;;-0.20;99.90;;;;;;5047852;28;20217;-73
2022/12/02 13:50:20;;;;;;;47.63;25.80;;;-0.10;99.90;;;;;;5035586;28;20230;-73
2022/12/02 13:53:09;;;;;;;49.47;24.30;;;-0.50;99.90;;;;;;5036118;28;20363;-74
2022/12/02 13:55:57;;;;;;;46.90;25.43;;;-0.70;99.90;;;;;;5042617;28;20697;-74
2022/12/02 13:58:46;;;;;;;58.67;26.73;;;-1.00;99.90;;;;;;5027230;28;20224;-73
2022/12/02 14:01:36;;;;;;;57.33;25.93;;;-0.70;99.90;;;;;;5042082;28;20954;-74
2022/12/02 14:04:25;;;;;;;47.27;24.60;;;-0.70;99.90;;;;;;5033989;28;20231;-74
2022/12/02 14:07:13;;;;;;;52.27;25.87;;;-0.90;99.90;;;;;;5026512;28;20245;-72
2022/12/02 14:10:02;;;;;;;48.27;25.40;;;-0.70;99.90;;;;;;5044658;28;20233;-73
2022/12/02 14:12:52;;;;;;;50.33;26.07;;;-0.60;99.90;;;;;;5038883;28;20275;-73
2022/12/02 14:15:41;;;;;;;55.00;26.67;;;-0.60;99.90;;;;;;5033697;28;20349;-73
2022/12/02 14:18:31;;;;;;;54.87;27.43;;;-0.70;99.90;;;;;;5036314;28;20307;-74
2022/12/02 14:21:19;;;;;;;54.13;26.60;;;-0.70;99.90;;;;;;5038750;28;20222;-73
2022/12/02 14:24:08;;;;;;;59.20;27.27;;;-0.70;99.90;;;;;;5041708;28;20255;-74
2022/12/02 14:26:57;;;;;;;56.00;26.50;;;-0.70;99.90;;;;;;5038237;28;20326;-74
2022/12/02 14:29:46;;;;;;;59.00;27.97;;;-0.90;99.90;;;;;;5029438;28;20226;-74
2022/12/02 14:32:36;;;;;;;56.30;27.73;;;-0.80;99.90;;;;;;5040917;28;20216;-74
2022/12/02 14:35:26;;;;;;;55.87;25.60;;;-0.60;99.90;;;;;;5034656;28;20604;-73
2022/12/02 14:38:15;;;;;;;61.37;28.43;;;-0.90;99.90;;;;;;5037440;28;20707;-73
2022/12/02 14:41:03;;;;;;;59.03;27.43;;;-0.80;99.90;;;;;;5036379;28;20242;-74